Glenwood, New York
Current Conditions -  °F | °C
As of 11:54 AM on Friday 24 Oct 2014 (Local Time) from KBUF Reporting Station
Scattered Clouds Scattered Clouds  
Wind Chill: 11°   Ceiling: Unl
Heat Index: 11°   Visibility: 10mi
Dew Point:   Wind: 10mph
Humidity: 66%   Direction: 240°WSW
Pressure: 30.02"   Gusts: NA
Location:  42.61°N, 78.65°W
Report Text: KBUF 241554Z 24009KT 10SM FEW026 FEW210 SCT260 11/05 A3002 RMK AO2 SLP167 T01110050
Loading
Personal Weather Stations






























Interactive Weather Map
Tropical Storm Tracking
New forecast layout! Learn more

10-Day Weather Forecast

Advertisements
Track Severe Weather on mobile